Mateo Arias

Olheiro - Santa Fe
28 Nov 2027
Domingo
Processo

Personalidade

Adaptabilidade (16) Ambição (14) Controvérsia (4) Lealdade (16) Pressão (5) Profissionalismo (15) Espírito Esportivo (14) Temperamento (17)

Perfil

Estilo de Treinamento Democrático
Licença Continental Pro
Determinação 4
Gestão de Pessoas 5
Motivação 6
Disciplina 11
Satisfação no Trabalho
94%
Fadiga
0%
Função Olheiro
Salário 26.2K p/s
Contrato 14.03.2028

Desempenho

Comportamento Bom
Eficácia do Treinamento
32%
Desenvolvimento do Jogador
20%
Prevenção de Lesões
25%
Implementação Tática
35%

Eventos Recentes

Participou de uma reunião de recrutamento 7d atrás
Participou de uma reunião de recrutamento 7d atrás
Participou de uma reunião de recrutamento 14d atrás
Participou de uma reunião de recrutamento 14d atrás
Participou de uma reunião de recrutamento 21d atrás
Participou de uma reunião de recrutamento 21d atrás
Participou de uma reunião de recrutamento 28d atrás
Participou de uma reunião de recrutamento 28d atrás

Monitorando agora

89
Jogador Clube Status Habilidade Confiança Observado Última observação Último voto
Wassim Bouziane AZ Ativo 131 / 139 40% 1 31.05.2027 -
Tariq Lamptey Queens Park Rangers Ativo 135 / 133 40% 1 30.05.2027 -
Brooke Norton-Cuffy Hull City Ativo 151 / 129 40% 1 30.05.2027 Mais informações
Jonathan De Irastorza Levante Ativo 127 / 120 40% 2 29.05.2027 -
Rhys Chadwick Burton Albion Ativo 105 / 101 40% 3 28.05.2027 -
Oumar Camara Vitoria Guimaraes Ativo 110 / 136 40% 3 28.05.2027 -
Edison Gruezo Queretaro Ativo 97 / 107 40% 2 27.05.2027 -
Alphadjo Cissé Palermo Ativo 134 / 123 40% 2 27.05.2027 -
Caleb Yirenkyi Coventry City Ativo 143 / 139 40% 5 24.05.2027 -
Imrân Louza Watford Ativo 138 / 134 40% 1 24.05.2027 -
Callum Brittain Middlesbrough Ativo 139 / 136 40% 1 24.05.2027 -
Sindre Walle Egeli Ipswich Town Ativo 136 / 130 40% 1 24.05.2027 -
Othmane Maamma Watford Ativo 118 / 130 40% 1 22.05.2027 -
Mattia Rutigliano Pro Vercelli Ativo 108 / 112 40% 1 22.05.2027 -
João Fonseca Benfica Ativo 107 / 105 40% 1 18.05.2027 -
Oscar Schwartau Norwich City Ativo 114 / 120 40% 1 17.05.2027 -
Riley Owen Peterborough United Ativo 99 / 113 40% 1 17.05.2027 -
Ferdi Kadıoğlu Stoke City Ativo 160 / 145 40% 1 16.05.2027 -
Rob Atkinson Bristol City Ativo 128 / 129 40% 1 16.05.2027 -
Christos Mouzakitis Hull City Ativo 120 / 139 40% 3 15.05.2027 -
Lennon Miller AC Milan Ativo 132 / 145 40% 3 12.05.2027 -
Dani Díaz Real Sociedad Ativo 109 / 111 40% 1 12.05.2027 -
Jack Currie Oxford United Ativo 115 / 114 40% 1 11.05.2027 -
Ethan Ampadu Leeds United Ativo 141 / 153 40% 1 11.05.2027 -
Alejandro Almaraz Eibar Ativo 115 / 119 40% 1 10.05.2027 -
Archie Brown Fenerbahce Ativo 144 / 142 40% 1 10.05.2027 -
Di'Shon Bernard Sheffield Wednesday Ativo 117 / 126 40% 1 10.05.2027 -
Jayden Addai Como Ativo 123 / 144 40% 3 06.05.2027 -
Jesús Rodríguez Como Ativo 133 / 142 40% 2 06.05.2027 -
Marc Bola Watford Ativo 113 / 116 40% 1 06.05.2027 -
Habib Diarra Sunderland Ativo 130 / 150 40% 1 06.05.2027 -
Tim Iroegbunam Hull City Ativo 145 / 131 40% 1 04.05.2027 -
Gustavo Hamer Sheffield United Ativo 139 / 133 40% 1 04.05.2027 -
Agustín Medina Athletic Bilbao Ativo 123 / 135 40% 3 03.05.2027 -
Jan Salas Huesca Ativo 102 / 106 40% 3 03.05.2027 -
Kristoffer Lund Birmingham Ativo 121 / 121 40% 1 02.05.2027 -
Sidiki Chérif Coventry City Ativo 121 / 130 40% 1 30.04.2027 -
Kamarni Ryan Harrogate Town Ativo 83 / 89 40% 1 28.04.2027 -
Yehor Yarmoliuk Brentford Ativo 148 / 157 40% 1 28.04.2027 -
André Miranda Porto Ativo 110 / 119 40% 1 26.04.2027 -
Ronwen Vilakazi Ajax Cape Town Ativo 101 / 99 40% 1 25.04.2027 -
Eoin Toal Bolton Wanderers Ativo 119 / 116 40% 1 24.04.2027 -
George Paaku Hearts of Oak Ativo 102 / 77 40% 1 23.04.2027 -
Jhon Renteria Sarmiento Ativo 116 / 115 40% 1 22.04.2027 -
Christ Inao Oulaï Fiorentina Ativo 139 / 144 40% 1 22.04.2027 -
Daniel Awuni Aduana Stars Ativo 90 / 108 40% 2 21.04.2027 -
Edoardo Bove Watford Ativo 124 / 134 40% 1 19.04.2027 -
Sebastián Osorio Sporting CP Ativo 94 / 95 40% 2 18.04.2027 -
Mathys Tel Tottenham Ativo 143 / 150 40% 2 18.04.2027 -
Japhet Tanganga Sheffield United Ativo 143 / 134 40% 1 18.04.2027 -
Toti Wolverhampton Ativo 129 / 135 40% 1 18.04.2027 -
Ruan Alanyaspor Ativo 131 / 115 40% 1 17.04.2027 -
Noah Sadiki Sunderland Ativo 156 / 144 40% 1 16.04.2027 -
Ethan Pye Stockport County Ativo 115 / 118 40% 1 16.04.2027 -
Shea Lacey Hull City Ativo 111 / 127 40% 1 13.04.2027 -
Diogo Guzmán Deportivo La Coruña Ativo 109 / 111 40% 2 12.04.2027 -
Dara O'Shea Ipswich Town Ativo 129 / 133 40% 1 12.04.2027 -
Igor Burnley Ativo 152 / 153 40% 1 08.04.2027 -
Atsuki Ito Bolton Wanderers Ativo 134 / 118 40% 1 08.04.2027 -
Exequiel Palacios Ipswich Town Ativo 155 / 165 40% 1 06.04.2027 -
Anton Stach Leeds United Ativo 138 / 151 40% 1 06.04.2027 -
Lisandro Piñero Celta Ativo 121 / 121 40% 1 05.04.2027 -
Kauã Elias Club Brugge Ativo 130 / 126 40% 1 05.04.2027 -
Halam Loboa Osasuna Ativo 109 / 122 40% 4 04.04.2027 -
James Dornelly Peterborough United Ativo 115 / 115 40% 3 28.03.2027 -
Juan Giménez Rayo Vallecano Ativo 109 / 131 40% 1 26.03.2027 -
Kirill Glebov CSKA Moscow Ativo 122 / 132 40% 2 22.03.2027 -
Mateus Mané Liverpool Ativo 142 / 140 40% 1 22.03.2027 -
Leandro Martins Benfica Ativo 98 / 105 40% 1 17.03.2027 -
Thiago Silvero Betis Ativo 128 / 130 40% 1 14.03.2027 -
Harrison Armstrong Hull City Ativo 126 / 133 40% 1 12.03.2027 -
David Ozoh Derby County Ativo 133 / 136 40% 1 12.03.2027 -
Eduardo Felicíssimo Sporting CP Ativo 105 / 110 40% 1 07.03.2027 -
Yussif Saidu Zaragoza Ativo 122 / 115 40% 1 04.03.2027 -
Axel Doku KV Oostende Ativo 119 / 128 40% 1 02.03.2027 -
Tom Atcheson Crewe Alexandra Ativo 117 / 110 40% 1 10.02.2027 -
Edwin Asamoah Berekum Chelsea Ativo 78 / 104 40% 1 08.02.2027 -
Eliás Montiel Atlético Madrid Ativo 134 / 126 40% 1 02.02.2027 -
Mateo Castillo Real Cartagena Ativo 119 / 130 51% 1 14.12.2026 -
Manuel Salcedo Tigres Ativo 118 / 106 40% 1 07.11.2026 -
Kevin Álvarez Club America Ativo 152 / 119 40% 1 21.10.2026 -
Adrián Sánchez Belgrano Ativo 117 / 116 40% 1 21.10.2026 -
Valentino Acuña Newell's Old Boys Ativo 110 / 120 40% 1 06.10.2026 -
Gustavo Albarracín Alavés Ativo 115 / 115 40% 1 17.09.2026 -
Johan Murillo Chacarita Juniors Ativo 80 / 87 40% 1 09.09.2026 -
Francisco Cuzzani Ferro Carril Oeste Ativo 98 / 109 40% 1 09.09.2026 -
Bianneider Tamayo Universidad de Chile Ativo 105 / 106 40% 1 27.08.2026 -
Isaí Valladares Zamora Ativo 96 / 111 40% 1 18.08.2026 -
Lucas Costa Huracán Ativo 96 / 98 40% 1 04.08.2026 -